Time;durP1;ratioP1;P1;durP2;ratioP2;P2;SDS_P1;SDS_P2;PMS_P1;PMS_P2;Temp;Humidity;BMP_temperature;BMP_pressure;BME280_temperature;BME280_humidity;BME280_pressure;Samples;Min_cycle;Max_cycle;Signal;HPM_P1;HPM_P2
2023/01/04 00:02:21;;;;;;;9.65;3.60;;;;;;;7.78;100.00;101936.09;5334835;27;20484;-82
2023/01/04 00:04:52;;;;;;;12.95;4.32;;;;;;;7.71;100.00;101923.22;5326175;27;20020;-82
2023/01/04 00:07:23;;;;;;;16.40;4.50;;;;;;;7.69;100.00;101911.81;5347213;27;20055;-82
2023/01/04 00:09:55;;;;;;;12.63;4.32;;;;;;;7.72;100.00;101905.47;5346601;27;20483;-82
2023/01/04 00:12:27;;;;;;;13.30;4.57;;;;;;;7.70;100.00;101913.53;5339599;27;20019;-82
2023/01/04 00:14:58;;;;;;;11.02;4.55;;;;;;;7.70;100.00;101896.75;5343145;27;20028;-82
2023/01/04 00:17:29;;;;;;;11.75;4.50;;;;;;;7.74;100.00;101898.25;5336447;27;20428;-82
2023/01/04 00:20:01;;;;;;;12.55;4.32;;;;;;;7.72;100.00;101893.03;5347430;27;20051;-82
2023/01/04 00:22:33;;;;;;;11.00;4.63;;;;;;;7.72;100.00;101903.66;5338129;27;20095;-83
2023/01/04 00:25:05;;;;;;;14.50;5.05;;;;;;;7.70;100.00;101884.31;5325468;28;20039;-82
2023/01/04 00:27:36;;;;;;;9.15;4.30;;;;;;;7.71;100.00;101872.75;5324919;28;20028;-82
2023/01/04 00:30:08;;;;;;;13.43;5.05;;;;;;;7.69;100.00;101863.16;5342007;27;20027;-82
2023/01/04 00:32:39;;;;;;;11.30;4.60;;;;;;;7.74;100.00;101851.28;5334659;27;20047;-82
2023/01/04 00:35:10;;;;;;;11.35;4.68;;;;;;;7.77;100.00;101860.88;5338709;27;20036;-81
2023/01/04 00:37:42;;;;;;;10.82;4.43;;;;;;;7.76;100.00;101861.81;5326964;27;20113;-81
2023/01/04 00:40:13;;;;;;;9.85;5.00;;;;;;;7.80;100.00;101870.44;5339261;27;20027;-81
2023/01/04 00:42:45;;;;;;;7.30;3.95;;;;;;;7.84;100.00;101864.00;5321937;27;20062;-82
2023/01/04 00:45:16;;;;;;;15.25;4.82;;;;;;;7.84;100.00;101845.41;5339162;27;20032;-81
2023/01/04 00:47:47;;;;;;;8.43;4.05;;;;;;;7.86;100.00;101844.34;5339173;27;20093;-81
2023/01/04 00:50:18;;;;;;;10.68;4.40;;;;;;;7.91;100.00;101842.22;5340744;27;20036;-81
2023/01/04 00:52:50;;;;;;;9.13;4.50;;;;;;;7.91;100.00;101836.06;5338033;27;20035;-82
2023/01/04 00:55:21;;;;;;;9.88;4.20;;;;;;;7.95;100.00;101824.28;5340025;27;20418;-82
2023/01/04 00:57:52;;;;;;;11.93;4.88;;;;;;;7.95;100.00;101822.47;5339109;27;20019;-81
2023/01/04 01:00:23;;;;;;;6.60;4.00;;;;;;;8.01;100.00;101838.97;5340631;27;20051;-81
2023/01/04 01:02:55;;;;;;;8.90;4.30;;;;;;;8.06;100.00;101850.13;5340034;27;20027;-82
2023/01/04 01:05:27;;;;;;;8.95;3.70;;;;;;;8.07;100.00;101814.66;5341144;27;20110;-82
2023/01/04 01:08:23;;;;;;;6.97;3.72;;;;;;;8.12;100.00;101825.81;5337600;27;20473;-82
2023/01/04 01:10:50;;;;;;;10.48;3.60;;;;;;;8.12;100.00;101799.25;5326149;27;20024;-83
2023/01/04 01:13:22;;;;;;;7.10;3.40;;;;;;;8.11;100.00;101802.84;5338593;27;20160;-82
2023/01/04 01:15:53;;;;;;;7.65;3.05;;;;;;;8.14;100.00;101830.06;5341451;27;20027;-83
2023/01/04 01:18:24;;;;;;;5.68;2.78;;;;;;;8.16;100.00;101826.47;5331603;27;28634;-83
2023/01/04 01:20:56;;;;;;;7.97;2.80;;;;;;;8.17;100.00;101810.44;5329071;27;20100;-83
2023/01/04 01:23:28;;;;;;;6.10;3.28;;;;;;;8.20;100.00;101820.81;5327062;27;21512;-83
2023/01/04 01:26:01;;;;;;;6.80;3.22;;;;;;;8.18;100.00;101808.63;5325547;27;20112;-83
2023/01/04 01:28:34;;;;;;;5.15;2.72;;;;;;;8.18;100.00;101797.97;5329453;27;20101;-82
2023/01/04 01:31:12;;;;;;;5.03;3.60;;;;;;;8.19;100.00;101802.31;5337097;27;20108;-83
2023/01/04 01:33:45;;;;;;;8.07;4.20;;;;;;;8.19;100.00;101789.91;5337794;27;20046;-81
2023/01/04 01:36:18;;;;;;;8.20;3.92;;;;;;;8.18;100.00;101792.66;5331558;27;20024;-82
2023/01/04 01:38:50;;;;;;;7.43;3.60;;;;;;;8.21;100.00;101813.72;5345362;27;20467;-81
2023/01/04 01:41:23;;;;;;;7.45;3.83;;;;;;;8.21;100.00;101788.00;5342732;27;20114;-82
2023/01/04 01:43:56;;;;;;;7.28;4.00;;;;;;;8.29;100.00;101785.69;5322677;27;20030;-81
2023/01/04 01:46:41;;;;;;;7.25;3.70;;;;;;;8.28;100.00;101812.34;5337920;27;20023;-82
2023/01/04 01:49:31;;;;;;;7.35;3.72;;;;;;;8.26;100.00;101793.84;5340293;27;20356;-83
2023/01/04 01:52:12;;;;;;;4.75;3.22;;;;;;;8.27;100.00;101784.91;5329837;27;20078;-82
2023/01/04 01:54:47;;;;;;;5.28;3.50;;;;;;;8.30;100.00;101773.22;5343777;27;20103;-83
2023/01/04 01:57:25;;;;;;;9.93;4.20;;;;;;;8.34;100.00;101785.34;5338368;27;20102;-82
2023/01/04 02:00:02;;;;;;;6.35;3.60;;;;;;;8.37;100.00;101773.66;5348366;27;20031;-81
2023/01/04 02:02:34;;;;;;;8.60;3.80;;;;;;;8.40;100.00;101776.97;5354256;27;20027;-80
2023/01/04 02:05:06;;;;;;;7.60;3.58;;;;;;;8.43;100.00;101768.81;5358487;27;20047;-80
2023/01/04 02:07:39;;;;;;;5.82;3.33;;;;;;;8.49;100.00;101786.16;5359578;27;20047;-81
2023/01/04 02:10:11;;;;;;;7.88;3.22;;;;;;;8.52;100.00;101775.31;5338238;27;20008;-81
2023/01/04 02:12:44;;;;;;;6.78;2.75;;;;;;;8.52;100.00;101764.66;5334495;27;20564;-82
2023/01/04 02:15:16;;;;;;;4.18;2.35;;;;;;;8.61;100.00;101768.50;5333233;27;20035;-81
2023/01/04 02:17:55;;;;;;;4.32;2.40;;;;;;;8.55;100.00;101790.19;5331650;27;20032;-81
2023/01/04 02:20:32;;;;;;;7.78;2.70;;;;;;;8.55;100.00;101780.38;5333724;27;21289;-82
2023/01/04 02:23:18;;;;;;;6.07;2.67;;;;;;;8.56;100.00;101814.00;5333936;27;20375;-82
2023/01/04 02:26:20;;;;;;;3.10;2.07;;;;;;;8.62;100.00;101778.16;5334911;27;20020;-82
2023/01/04 02:29:22;;;;;;;4.38;2.10;;;;;;;8.64;100.00;101774.44;5336883;27;20024;-82
2023/01/04 02:31:57;;;;;;;3.50;2.20;;;;;;;8.66;100.00;101761.91;5319547;27;20080;-82
2023/01/04 02:34:43;;;;;;;4.28;2.30;;;;;;;8.65;100.00;101762.00;5333923;27;20118;-83
2023/01/04 02:37:28;;;;;;;3.90;2.20;;;;;;;8.70;100.00;101794.44;5339437;27;20421;-82
2023/01/04 02:40:22;;;;;;;4.50;2.30;;;;;;;8.75;100.00;101748.88;5336586;27;20059;-82
2023/01/04 02:45:58;;;;;;;4.75;2.35;;;;;;;8.79;100.00;101734.44;5338274;27;20404;-82
2023/01/04 02:51:32;;;;;;;3.17;2.55;;;;;;;8.83;100.00;101734.06;5340898;27;20035;-82
2023/01/04 02:54:06;;;;;;;3.25;2.42;;;;;;;8.82;100.00;101731.56;5334027;27;20103;-82
2023/01/04 02:57:07;;;;;;;3.25;2.25;;;;;;;8.82;100.00;101718.25;5332909;27;20027;-82
2023/01/04 02:59:54;;;;;;;5.22;2.30;;;;;;;8.85;100.00;101741.94;5334086;27;20172;-81
2023/01/04 03:06:15;;;;;;;2.28;2.08;;;;;;;8.85;100.00;101723.34;5330049;27;20035;-82
2023/01/04 03:08:58;;;;;;;2.20;2.00;;;;;;;8.88;100.00;101704.50;5338329;27;20031;-83
2023/01/04 03:15:02;;;;;;;3.17;1.77;;;;;;;8.95;100.00;101699.59;5327319;27;20040;-82
2023/01/04 03:17:43;;;;;;;3.45;2.53;;;;;;;8.91;100.00;101688.31;5336123;27;20031;-82
2023/01/04 03:20:17;;;;;;;3.08;2.80;;;;;;;8.97;100.00;101689.69;5332996;27;20043;-80
2023/01/04 03:37:47;;;;;;;4.13;2.95;;;;;;;9.14;100.00;101689.28;5335349;27;20043;-83
2023/01/04 03:49:32;;;;;;;4.50;3.00;;;;;;;9.22;100.00;101664.75;5329485;27;20024;-81
2023/01/04 03:52:07;;;;;;;3.17;2.90;;;;;;;9.21;100.00;101661.25;5332715;27;20024;-81
2023/01/04 03:54:43;;;;;;;3.63;3.30;;;;;;;9.25;100.00;101660.06;5334755;27;20028;-81
2023/01/04 03:57:16;;;;;;;3.50;3.20;;;;;;;9.26;100.00;101658.28;5329785;27;20068;-81
2023/01/04 04:00:01;;;;;;;4.95;4.00;;;;;;;9.37;100.00;101650.31;5326650;27;20388;-81
2023/01/04 04:02:34;;;;;;;2.92;2.60;;;;;;;9.39;100.00;101658.19;5328026;27;20510;-81
2023/01/04 04:10:46;;;;;;;5.53;3.10;;;;;;;9.43;100.00;101643.69;5341590;27;20035;-82
2023/01/04 04:13:17;;;;;;;4.00;2.97;;;;;;;9.44;100.00;101648.06;5328655;27;20026;-81
2023/01/04 04:15:52;;;;;;;5.32;2.90;;;;;;;9.47;100.00;101647.81;5338380;27;20536;-81
2023/01/04 04:18:23;;;;;;;4.28;3.17;;;;;;;9.50;100.00;101631.59;5339205;27;20036;-81
2023/01/04 04:20:58;;;;;;;5.50;3.13;;;;;;;9.51;100.00;101627.97;5340177;27;20077;-83
2023/01/04 04:23:29;;;;;;;5.90;3.50;;;;;;;9.49;100.00;101624.59;5334455;27;20399;-82
2023/01/04 04:26:00;;;;;;;4.78;3.30;;;;;;;9.51;100.00;101643.13;5334210;27;20066;-82
2023/01/04 04:28:33;;;;;;;3.75;3.30;;;;;;;9.50;100.00;101654.72;5332061;27;20482;-80
2023/01/04 04:31:05;;;;;;;7.50;3.67;;;;;;;9.52;100.00;101618.16;5325368;27;20028;-80
2023/01/04 04:33:36;;;;;;;4.75;3.63;;;;;;;9.59;100.00;101609.59;5331912;27;20024;-80
2023/01/04 04:36:08;;;;;;;4.65;3.60;;;;;;;9.62;100.00;101600.53;5332228;27;20437;-81
2023/01/04 04:38:39;;;;;;;4.10;3.70;;;;;;;9.62;100.00;101593.41;5336462;27;20032;-81
2023/01/04 04:44:03;;;;;;;4.43;3.50;;;;;;;9.68;100.00;101578.75;5334240;27;20043;-82
2023/01/04 04:46:34;;;;;;;7.05;3.95;;;;;;;9.65;100.00;101611.78;5331824;27;20063;-81
2023/01/04 04:49:08;;;;;;;4.55;3.42;;;;;;;9.76;100.00;101597.63;5327540;27;21605;-81
2023/01/04 04:51:40;;;;;;;5.18;3.70;;;;;;;9.75;100.00;101584.47;5328488;27;20442;-81
2023/01/04 04:54:17;;;;;;;6.25;3.90;;;;;;;9.79;100.00;101594.75;5330950;27;20055;-81
2023/01/04 04:56:49;;;;;;;5.25;3.10;;;;;;;9.80;100.00;101583.13;5330854;27;20576;-81
2023/01/04 04:59:20;;;;;;;7.45;3.30;;;;;;;9.81;100.00;101571.50;5331732;27;20032;-81
2023/01/04 05:01:51;;;;;;;6.18;3.60;;;;;;;9.80;100.00;101568.94;5332830;27;20771;-81
2023/01/04 05:04:23;;;;;;;5.72;3.70;;;;;;;9.83;100.00;101577.56;5330843;27;20039;-81
2023/01/04 05:06:54;;;;;;;6.55;3.72;;;;;;;9.86;100.00;101586.28;5308289;27;20031;-81
2023/01/04 05:09:25;;;;;;;7.22;4.57;;;;;;;9.88;100.00;101565.69;5336815;27;20047;-81
2023/01/04 05:14:48;;;;;;;3.28;2.97;;;;;;;9.92;100.00;101564.47;5304821;27;20043;-81
2023/01/04 05:17:19;;;;;;;3.33;3.03;;;;;;;9.93;100.00;101580.34;5328320;27;20088;-81
2023/01/04 05:19:51;;;;;;;3.78;2.65;;;;;;;9.96;100.00;101560.63;5332854;27;20330;-81
2023/01/04 05:22:22;;;;;;;4.13;2.95;;;;;;;9.96;100.00;101548.13;5330984;27;20115;-81
2023/01/04 05:24:53;;;;;;;3.30;2.90;;;;;;;9.99;100.00;101561.22;5329649;27;20038;-82
2023/01/04 05:27:25;;;;;;;3.42;2.80;;;;;;;10.06;100.00;101553.56;5330725;27;20473;-81
2023/01/04 05:32:46;;;;;;;3.83;2.70;;;;;;;10.08;100.00;101542.78;5332063;27;20472;-81
2023/01/04 05:35:17;;;;;;;3.97;2.75;;;;;;;10.09;100.00;101539.16;5330477;27;20039;-81
2023/01/04 05:37:48;;;;;;;4.78;2.90;;;;;;;10.07;100.00;101549.94;5334050;27;20032;-81
2023/01/04 05:40:20;;;;;;;4.40;2.58;;;;;;;10.10;100.00;101532.84;5332698;27;20039;-81
2023/01/04 05:42:52;;;;;;;3.72;2.50;;;;;;;10.13;100.00;101538.81;5314838;27;20028;-81
2023/01/04 05:45:23;;;;;;;3.70;2.88;;;;;;;10.11;100.00;101559.38;5334122;27;20032;-81
2023/01/04 05:47:54;;;;;;;6.38;3.00;;;;;;;10.08;100.00;101534.78;5332742;27;20119;-81
2023/01/04 05:50:26;;;;;;;3.80;2.60;;;;;;;10.11;100.00;101537.22;5329810;27;20398;-81
2023/01/04 05:52:57;;;;;;;5.78;3.20;;;;;;;10.12;100.00;101526.44;5338203;27;20403;-82
2023/01/04 05:55:29;;;;;;;4.93;2.75;;;;;;;10.15;100.00;101518.19;5335927;27;20103;-81
2023/01/04 05:58:00;;;;;;;3.45;2.58;;;;;;;10.17;100.00;101508.25;5340590;27;20027;-82
2023/01/04 06:00:32;;;;;;;4.15;2.33;;;;;;;10.16;100.00;101514.53;5332229;27;20027;-81
2023/01/04 06:03:03;;;;;;;5.10;2.58;;;;;;;10.22;100.00;101516.72;5340248;27;20024;-81
2023/01/04 06:05:34;;;;;;;5.68;2.42;;;;;;;10.25;100.00;101515.63;5332731;27;20118;-81
2023/01/04 06:08:06;;;;;;;3.60;2.20;;;;;;;10.78;100.00;101530.91;5340295;27;20141;-81
2023/01/04 06:10:38;;;;;;;6.45;2.33;;;;;;;10.79;100.00;101529.94;5333167;27;20124;-81
2023/01/04 06:13:09;;;;;;;5.35;2.20;;;;;;;10.72;100.00;101537.59;5339168;27;20089;-81
2023/01/04 06:15:40;;;;;;;2.75;2.00;;;;;;;10.75;100.00;101525.84;5319250;27;20122;-81
2023/01/04 06:18:12;;;;;;;5.68;2.50;;;;;;;10.73;100.00;101533.13;5339720;27;20037;-81
2023/01/04 06:20:43;;;;;;;4.00;2.88;;;;;;;10.77;100.00;101523.91;5316936;27;20054;-82
2023/01/04 06:23:14;;;;;;;2.35;1.98;;;;;;;10.82;100.00;101526.16;5331270;27;20028;-81
2023/01/04 06:25:46;;;;;;;4.30;2.45;;;;;;;10.81;100.00;101538.66;5338124;27;20038;-82
2023/01/04 06:28:17;;;;;;;3.55;2.20;;;;;;;10.82;100.00;101527.03;5340078;27;20032;-81
2023/01/04 06:30:48;;;;;;;6.13;2.22;;;;;;;10.81;100.00;101511.97;5321307;27;20448;-81
2023/01/04 06:33:20;;;;;;;3.67;2.45;;;;;;;10.75;100.00;101508.00;5341979;27;20447;-81
2023/01/04 06:35:55;;;;;;;4.80;2.40;;;;;;;10.79;100.00;101501.44;5344252;27;20107;-81
2023/01/04 06:38:27;;;;;;;4.13;2.30;;;;;;;10.78;100.00;101501.56;5341086;27;20031;-81
2023/01/04 06:40:58;;;;;;;3.05;2.47;;;;;;;10.74;100.00;101500.97;5341347;27;20380;-80
2023/01/04 06:43:30;;;;;;;5.60;2.42;;;;;;;10.71;100.00;101500.38;5332099;27;20035;-80
2023/01/04 06:46:02;;;;;;;4.35;2.22;;;;;;;10.75;100.00;101512.50;5342047;27;20442;-80
2023/01/04 06:48:33;;;;;;;3.13;2.10;;;;;;;10.80;100.00;101518.31;5335001;27;20441;-81
2023/01/04 06:51:05;;;;;;;6.50;2.45;;;;;;;10.74;100.00;101524.13;5345909;27;20058;-81
2023/01/04 06:53:36;;;;;;;3.38;2.33;;;;;;;10.77;100.00;101516.72;5337873;27;20016;-83
2023/01/04 06:56:08;;;;;;;4.28;2.50;;;;;;;10.80;100.00;101523.66;5339323;27;20031;-81
2023/01/04 06:58:39;;;;;;;4.70;2.33;;;;;;;10.81;100.00;101511.16;5342800;27;20407;-82
2023/01/04 07:01:10;;;;;;;2.30;2.00;;;;;;;10.83;100.00;101520.69;5337586;27;20036;-81
2023/01/04 07:03:42;;;;;;;5.18;2.30;;;;;;;10.78;100.00;101493.53;5335477;27;20039;-81
2023/01/04 07:06:13;;;;;;;2.63;1.95;;;;;;;10.85;100.00;101513.44;5332924;27;20456;-82
2023/01/04 07:08:44;;;;;;;2.80;2.05;;;;;;;10.84;100.00;101497.56;5339393;27;20120;-81
2023/01/04 07:11:15;;;;;;;2.47;1.98;;;;;;;10.85;100.00;101496.56;5336561;27;20480;-81
2023/01/04 07:13:51;;;;;;;6.68;2.92;;;;;;;10.90;100.00;101502.34;5338814;27;20031;-81
2023/01/04 07:16:23;;;;;;;3.30;1.95;;;;;;;10.90;100.00;101510.38;5318275;27;20188;-81
2023/01/04 07:18:54;;;;;;;2.75;1.70;;;;;;;10.94;100.00;101493.13;5341982;27;20416;-81
2023/01/04 07:21:25;;;;;;;3.47;1.60;;;;;;;10.99;100.00;101474.88;5333612;27;20016;-81
2023/01/04 07:23:57;;;;;;;4.30;1.75;;;;;;;11.01;100.00;101469.41;5346999;27;20079;-81
2023/01/04 07:26:28;;;;;;;3.30;1.70;;;;;;;11.03;100.00;101480.84;5346647;27;20054;-81
2023/01/04 07:29:15;;;;;;;2.08;1.40;;;;;;;11.03;100.00;101480.84;5348395;27;20012;-81
2023/01/04 07:31:49;;;;;;;2.35;1.40;;;;;;;11.04;100.00;101469.16;5347922;27;20368;-81
2023/01/04 07:34:23;;;;;;;3.67;1.30;;;;;;;11.05;100.00;101474.38;5339310;27;20058;-81
2023/01/04 07:36:54;;;;;;;3.40;1.25;;;;;;;11.05;100.00;101473.53;5327383;27;20016;-81
2023/01/04 07:39:26;;;;;;;3.10;1.20;;;;;;;11.07;100.00;101467.09;5348005;27;20098;-81
2023/01/04 07:41:57;;;;;;;3.47;1.35;;;;;;;11.10;100.00;101472.16;5329163;27;20023;-81
2023/01/04 07:44:29;;;;;;;3.65;1.20;;;;;;;11.16;100.00;101460.94;5347871;27;20956;-81
2023/01/04 07:47:00;;;;;;;3.15;1.05;;;;;;;11.17;100.00;101472.50;5348549;27;20477;-81
2023/01/04 07:49:32;;;;;;;2.78;1.13;;;;;;;11.20;100.00;101456.19;5349149;27;20019;-81
2023/01/04 07:52:03;;;;;;;4.20;1.55;;;;;;;11.28;100.00;101453.72;5350990;27;20405;-81
2023/01/04 07:54:34;;;;;;;6.55;1.50;;;;;;;11.30;100.00;101467.78;5331632;27;20054;-81
2023/01/04 07:57:06;;;;;;;2.33;1.20;;;;;;;11.35;100.00;101440.69;5350392;27;20068;-81
2023/01/04 07:59:37;;;;;;;2.60;1.30;;;;;;;11.31;100.00;101450.78;5350347;27;20027;-81
2023/01/04 08:02:10;;;;;;;5.35;1.48;;;;;;;11.35;100.00;101440.69;5350532;27;20059;-81
2023/01/04 08:04:41;;;;;;;4.13;1.88;;;;;;;11.36;100.00;101439.72;5329328;28;20020;-81
2023/01/04 08:07:13;;;;;;;3.10;1.40;;;;;;;11.40;100.00;101443.81;5344094;28;20027;-81
2023/01/04 08:09:44;;;;;;;5.47;1.50;;;;;;;11.44;100.00;101452.41;5350724;28;20046;-80
2023/01/04 08:12:15;;;;;;;4.45;1.58;;;;;;;11.45;100.00;101476.31;5351416;28;20094;-80
2023/01/04 08:14:47;;;;;;;3.15;1.30;;;;;;;11.45;100.00;101470.13;5351079;27;20016;-79
2023/01/04 08:17:18;;;;;;;4.63;1.98;;;;;;;11.48;100.00;101484.06;5354634;27;20008;-80
2023/01/04 08:19:49;;;;;;;2.60;1.20;;;;;;;11.52;100.00;101450.75;5372007;27;20102;-81
2023/01/04 08:22:21;;;;;;;4.28;1.88;;;;;;;11.54;100.00;101451.47;5355043;27;20099;-80
2023/01/04 08:24:52;;;;;;;1.80;1.02;;;;;;;11.57;100.00;101465.53;5366374;27;20038;-80
2023/01/04 08:27:23;;;;;;;5.43;1.50;;;;;;;11.54;100.00;101472.84;5356704;27;20020;-81
2023/01/04 08:29:55;;;;;;;5.00;1.52;;;;;;;11.61;100.00;101475.81;5361909;27;20035;-81
2023/01/04 08:32:26;;;;;;;5.63;1.15;;;;;;;11.61;100.00;101473.16;5366841;27;20023;-81
2023/01/04 08:34:57;;;;;;;4.38;1.38;;;;;;;11.60;100.00;101449.25;5351193;27;20039;-80
2023/01/04 08:37:30;;;;;;;5.55;1.90;;;;;;;11.60;100.00;101500.84;5345960;28;20070;-81
2023/01/04 08:40:02;;;;;;;5.68;1.65;;;;;;;11.63;100.00;101481.88;5343634;28;20016;-80
2023/01/04 08:42:33;;;;;;;11.68;1.90;;;;;;;11.62;100.00;101490.84;5338282;27;20521;-81
2023/01/04 08:45:05;;;;;;;5.40;1.40;;;;;;;11.68;100.00;101481.47;5357764;27;20103;-81
2023/01/04 08:47:36;;;;;;;3.45;1.30;;;;;;;11.71;100.00;101474.03;5362576;27;20083;-81
2023/01/04 08:50:08;;;;;;;5.25;1.58;;;;;;;11.73;100.00;101477.44;5347002;27;20051;-80
2023/01/04 08:52:40;;;;;;;5.10;1.77;;;;;;;11.70;100.00;101488.38;5356585;27;20026;-81
2023/01/04 08:55:12;;;;;;;7.03;1.75;;;;;;;11.81;100.00;101483.91;5355375;27;20028;-81
2023/01/04 08:57:43;;;;;;;4.43;1.42;;;;;;;11.85;100.00;101488.00;5350191;27;20027;-82
2023/01/04 09:00:16;;;;;;;3.42;1.20;;;;;;;11.85;100.00;101478.19;5348378;27;20107;-81
2023/01/04 09:02:48;;;;;;;6.25;1.25;;;;;;;11.90;100.00;101492.03;5347423;27;20030;-81
2023/01/04 09:05:20;;;;;;;4.38;1.17;;;;;;;11.95;100.00;101477.38;5347372;27;20036;-81
2023/01/04 09:07:51;;;;;;;4.05;1.25;;;;;;;11.96;100.00;101479.09;5347490;27;20093;-81
2023/01/04 09:10:22;;;;;;;4.05;1.40;;;;;;;11.96;100.00;101490.63;5345228;27;20241;-82
2023/01/04 09:12:54;;;;;;;2.92;1.00;;;;;;;12.00;100.00;101496.53;5346573;27;20026;-82
2023/01/04 09:15:25;;;;;;;3.97;1.85;;;;;;;11.96;100.00;101474.59;5346967;27;20472;-82
2023/01/04 09:17:56;;;;;;;5.70;1.25;;;;;;;11.97;100.00;101478.94;5346971;27;20027;-81
2023/01/04 09:20:28;;;;;;;3.78;1.02;;;;;;;11.94;100.00;101481.91;5347022;27;20035;-81
2023/01/04 09:22:59;;;;;;;4.57;1.60;;;;;;;11.94;100.00;101460.50;5348960;27;20016;-82
2023/01/04 09:25:30;;;;;;;3.13;1.10;;;;;;;11.91;100.00;101476.81;5350513;27;20435;-81
2023/01/04 09:28:02;;;;;;;4.97;1.17;;;;;;;11.87;100.00;101443.31;5358825;27;20024;-82
2023/01/04 09:30:34;;;;;;;5.03;1.10;;;;;;;11.85;100.00;101472.84;5340290;27;20024;-81
2023/01/04 09:33:05;;;;;;;6.13;1.02;;;;;;;11.84;100.00;101484.50;5359825;27;20026;-81
2023/01/04 09:35:36;;;;;;;5.00;1.60;;;;;;;11.84;100.00;101472.97;5358073;27;20690;-82
2023/01/04 09:38:08;;;;;;;2.65;1.13;;;;;;;11.82;100.00;101473.09;5352689;27;20047;-82
2023/01/04 09:40:56;;;;;;;7.55;1.08;;;;;;;11.76;100.00;101480.81;5353395;27;20537;-82
2023/01/04 09:43:33;;;;;;;3.15;1.30;;;;;;;11.73;100.00;101481.94;5353430;27;20039;-82
2023/01/04 09:46:09;;;;;;;4.90;1.85;;;;;;;11.65;100.00;101468.38;5352983;27;20027;-82
2023/01/04 09:48:43;;;;;;;2.65;1.23;;;;;;;11.63;100.00;101473.84;5353223;27;20046;-82
2023/01/04 09:51:18;;;;;;;2.72;2.13;;;;;;;11.57;100.00;101463.72;5352496;27;20076;-82
2023/01/04 09:53:57;;;;;;;6.90;2.10;;;;;;;11.64;100.00;101472.91;5352602;27;20031;-82
2023/01/04 09:56:31;;;;;;;5.75;1.70;;;;;;;11.59;100.00;101482.25;5352269;27;20159;-82
2023/01/04 09:59:13;;;;;;;3.67;1.88;;;;;;;11.61;100.00;101465.13;5353028;27;20577;-82
2023/01/04 10:01:48;;;;;;;7.82;2.28;;;;;;;11.62;100.00;101472.16;5320092;27;20028;-82
2023/01/04 10:04:28;;;;;;;6.90;1.95;;;;;;;11.62;100.00;101472.16;5352223;27;20082;-82
2023/01/04 10:07:00;;;;;;;6.00;2.20;;;;;;;11.63;100.00;101470.34;5333454;27;20019;-81
2023/01/04 10:09:32;;;;;;;5.30;2.13;;;;;;;11.64;100.00;101470.22;5353139;27;20015;-82
2023/01/04 10:12:32;;;;;;;5.18;2.20;;;;;;;11.64;100.00;101464.00;5332799;27;20024;-82
2023/01/04 10:15:15;;;;;;;5.43;2.15;;;;;;;11.61;100.00;101442.94;5333344;27;20035;-82
2023/01/04 10:18:25;;;;;;;7.35;2.67;;;;;;;11.64;100.00;101443.50;5352807;27;20173;-82
2023/01/04 10:21:06;;;;;;;8.25;2.30;;;;;;;11.65;100.00;101471.06;5285623;28;20075;-82
2023/01/04 10:23:56;;;;;;;5.20;2.58;;;;;;;11.67;100.00;101464.59;5365288;27;20043;-82
2023/01/04 10:26:38;;;;;;;7.97;2.92;;;;;;;11.64;100.00;101462.22;5372831;27;20455;-82
2023/01/04 10:29:43;;;;;;;5.68;2.67;;;;;;;11.68;100.00;101452.94;5370437;27;20047;-82
2023/01/04 10:32:43;;;;;;;6.40;2.90;;;;;;;11.62;100.00;101480.16;5372781;27;20050;-82
2023/01/04 10:35:24;;;;;;;5.50;2.80;;;;;;;11.67;100.00;101459.25;5373913;27;20038;-82
2023/01/04 10:38:02;;;;;;;4.57;3.05;;;;;;;11.59;100.00;101466.22;5370456;27;20337;-82
2023/01/04 10:40:38;;;;;;;6.05;3.00;;;;;;;11.59;100.00;101445.72;5370036;27;20015;-82
2023/01/04 10:43:24;;;;;;;6.32;2.63;;;;;;;11.63;100.00;101449.81;5369610;27;20439;-82
2023/01/04 10:46:16;;;;;;;8.15;3.20;;;;;;;11.61;100.00;101457.13;5369907;27;20031;-82
2023/01/04 10:49:06;;;;;;;7.47;2.90;;;;;;;11.65;100.00;101458.53;5370242;27;20030;-82
2023/01/04 10:51:53;;;;;;;6.10;2.90;;;;;;;11.64;100.00;101470.22;5370142;27;20088;-81
2023/01/04 10:54:36;;;;;;;6.63;2.65;;;;;;;11.66;100.00;101462.06;5348461;27;20028;-81
2023/01/04 10:57:15;;;;;;;5.63;3.00;;;;;;;11.65;100.00;101453.19;5328994;27;20456;-81
2023/01/04 10:59:52;;;;;;;8.90;3.13;;;;;;;11.61;100.00;101441.09;5348354;27;20024;-81
2023/01/04 11:03:02;;;;;;;6.40;2.22;;;;;;;11.68;100.00;101444.06;5329649;27;20030;-81
2023/01/04 11:05:57;;;;;;;5.57;2.50;;;;;;;11.72;100.00;101440.97;5307150;27;20040;-81
2023/01/04 11:08:34;;;;;;;5.28;2.15;;;;;;;11.64;100.00;101432.81;5364598;27;20030;-81
2023/01/04 11:11:18;;;;;;;5.18;2.08;;;;;;;11.63;100.00;101441.78;5369536;27;20054;-81
2023/01/04 11:13:49;;;;;;;3.20;1.83;;;;;;;11.64;100.00;101466.69;5369707;27;20023;-81
2023/01/04 11:16:21;;;;;;;2.05;1.65;;;;;;;11.66;100.00;101456.72;5369901;27;20042;-82
2023/01/04 11:18:52;;;;;;;4.35;1.83;;;;;;;11.62;100.00;101434.75;5363338;27;20399;-81
2023/01/04 11:21:33;;;;;;;2.67;1.40;;;;;;;11.65;100.00;101442.50;5347864;27;20359;-81
2023/01/04 11:24:06;;;;;;;6.28;1.70;;;;;;;11.69;100.00;101441.28;5347921;27;20039;-81
2023/01/04 11:26:42;;;;;;;3.20;1.50;;;;;;;11.66;100.00;101451.38;5347220;27;20035;-81
2023/01/04 11:29:29;;;;;;;2.15;1.40;;;;;;;11.68;100.00;101430.72;5348012;27;20104;-81
2023/01/04 11:32:15;;;;;;;1.75;1.02;;;;;;;11.62;100.00;101450.78;5348015;27;20026;-80
2023/01/04 11:34:50;;;;;;;3.70;1.30;;;;;;;11.68;100.00;101444.91;5348117;27;20107;-81
2023/01/04 11:37:36;;;;;;;3.08;1.40;;;;;;;11.69;100.00;101443.94;5342490;27;20024;-81
2023/01/04 11:40:16;;;;;;;1.67;1.08;;;;;;;11.68;100.00;101431.56;5326013;28;20525;-81
2023/01/04 11:42:50;;;;;;;2.55;1.08;;;;;;;11.68;100.00;101458.28;5326414;28;20055;-81
2023/01/04 11:45:27;;;;;;;2.25;1.00;;;;;;;11.65;100.00;101452.34;5326300;28;20032;-81
2023/01/04 11:47:59;;;;;;;2.70;1.15;;;;;;;11.63;100.00;101447.13;5307527;28;20194;-81
2023/01/04 11:50:47;;;;;;;1.42;0.80;;;;;;;11.67;100.00;101437.03;5326465;28;20504;-81
2023/01/04 11:53:29;;;;;;;2.40;0.90;;;;;;;11.70;100.00;101440.28;5336999;28;20468;-81
2023/01/04 11:56:10;;;;;;;2.00;1.00;;;;;;;11.68;100.00;101458.28;5336783;28;20548;-81
2023/01/04 11:58:44;;;;;;;1.88;1.00;;;;;;;11.69;100.00;101453.75;5338365;28;20027;-81
2023/01/04 12:01:22;;;;;;;1.05;0.80;;;;;;;11.63;100.00;101457.00;5329911;28;20080;-81
2023/01/04 12:03:53;;;;;;;2.20;0.77;;;;;;;11.65;100.00;101449.69;5307450;28;20030;-81
2023/01/04 12:06:39;;;;;;;2.22;0.80;;;;;;;11.63;100.00;101438.28;5328803;27;20111;-81
2023/01/04 12:09:14;;;;;;;1.90;0.70;;;;;;;11.63;100.00;101444.47;5325585;28;20016;-81
2023/01/04 12:11:58;;;;;;;0.85;0.60;;;;;;;11.71;100.00;101444.66;5325149;28;20016;-81
2023/01/04 12:14:35;;;;;;;0.60;0.60;;;;;;;11.70;100.00;101456.31;5325863;28;20028;-81
2023/01/04 12:17:28;;;;;;;1.05;0.50;;;;;;;11.73;100.00;101457.88;5325547;28;20034;-81
2023/01/04 12:20:02;;;;;;;1.92;0.70;;;;;;;11.73;100.00;101448.03;5334695;27;20043;-81
2023/01/04 12:22:40;;;;;;;1.13;0.80;;;;;;;11.78;100.00;101447.63;5368504;27;20100;-81
2023/01/04 12:25:33;;;;;;;0.85;0.50;;;;;;;11.78;100.00;101458.31;5368625;27;20114;-81
2023/01/04 12:28:04;;;;;;;0.60;0.55;;;;;;;11.77;100.00;101451.28;5368641;27;20025;-81
2023/01/04 12:30:46;;;;;;;0.98;0.60;;;;;;;11.82;100.00;101449.03;5368224;27;20015;-81
2023/01/04 12:33:29;;;;;;;0.93;0.50;;;;;;;11.87;100.00;101443.31;5366945;27;20151;-81
2023/01/04 12:36:08;;;;;;;0.68;0.50;;;;;;;11.84;100.00;101439.06;5366928;27;20019;-81
2023/01/04 12:39:01;;;;;;;0.50;0.50;;;;;;;11.86;100.00;101439.75;5367617;27;20114;-81
2023/01/04 12:41:33;;;;;;;0.60;0.50;;;;;;;11.83;100.00;101439.19;5367657;27;20019;-81
2023/01/04 12:44:35;;;;;;;1.38;0.70;;;;;;;11.93;100.00;101444.59;5367631;27;20540;-81
2023/01/04 12:50:26;;;;;;;0.82;0.60;;;;;;;11.81;100.00;101451.84;5353865;27;20024;-81
2023/01/04 12:53:00;;;;;;;1.30;0.68;;;;;;;11.84;100.00;101433.72;5366077;27;20027;-81